Time;durP1;ratioP1;P1;durP2;ratioP2;P2;SDS_P1;SDS_P2;PMS_P1;PMS_P2;Temp;Humidity;BMP_temperature;BMP_pressure;BME280_temperature;BME280_humidity;BME280_pressure;Samples;Min_cycle;Max_cycle;Signal;HPM_P1;HPM_P2
2022/03/07 00:00:35;;;;;;;1.77;0.75;;;;;;;;;;5073525;28;20396;-72
2022/03/07 00:03:02;;;;;;;0.70;0.50;;;;;;;;;;5056764;28;20418;-72
2022/03/07 00:05:29;;;;;;;0.80;0.70;;;;;;;;;;5055050;28;20427;-73
2022/03/07 00:07:57;;;;;;;1.00;0.70;;;;;;;;;;5053291;28;20765;-73
2022/03/07 00:10:46;;;;;;;0.80;0.70;;;;;;;;;;5072661;28;20514;-73
2022/03/07 00:13:12;;;;;;;0.80;0.60;;;;;;;;;;5072343;28;20419;-72
2022/03/07 00:15:39;;;;;;;0.70;0.50;;;;;;;;;;5073578;28;20415;-72
2022/03/07 00:18:06;;;;;;;1.10;1.00;;;;;;;;;;5074271;28;20464;-72
2022/03/07 00:20:33;;;;;;;0.70;0.60;;;;;;;;;;5074152;28;20407;-73
2022/03/07 00:23:01;;;;;;;1.23;0.65;;;;;;;;;;5074029;28;20442;-72
2022/03/07 00:25:28;;;;;;;0.80;0.60;;;;;;;;;;5060224;28;20777;-72
2022/03/07 00:27:57;;;;;;;0.70;0.60;;;;;;;;;;5056271;28;20414;-72
2022/03/07 00:30:23;;;;;;;0.90;0.70;;;;;;;;;;5056454;28;20403;-72
2022/03/07 00:32:50;;;;;;;0.70;0.60;;;;;;;;;;5072537;28;20427;-73
2022/03/07 00:35:17;;;;;;;0.88;0.60;;;;;;;;;;5072478;28;20408;-72
2022/03/07 00:37:44;;;;;;;0.70;0.60;;;;;;;;;;5073799;28;20457;-73
2022/03/07 00:40:11;;;;;;;1.70;1.20;;;;;;;;;;5073243;28;20927;-73
2022/03/07 00:42:38;;;;;;;0.70;0.50;;;;;;;;;;5071731;28;20410;-71
2022/03/07 00:45:10;;;;;;;0.70;0.60;;;;;;;;;;5072726;28;20420;-72
2022/03/07 00:47:36;;;;;;;1.08;0.77;;;;;;;;;;5055941;28;20761;-71
2022/03/07 00:50:04;;;;;;;0.85;0.70;;;;;;;;;;5072509;28;20517;-72
2022/03/07 00:52:30;;;;;;;0.70;0.50;;;;;;;;;;5072580;28;20944;-72
2022/03/07 00:54:57;;;;;;;0.70;0.50;;;;;;;;;;5055608;28;20908;-73
2022/03/07 00:57:24;;;;;;;0.70;0.60;;;;;;;;;;5055543;28;20916;-72
2022/03/07 00:59:53;;;;;;;1.10;0.80;;;;;;;;;;5071485;28;20434;-73
2022/03/07 01:02:22;;;;;;;0.90;0.70;;;;;;;;;;5071902;28;20408;-73
2022/03/07 01:04:49;;;;;;;0.70;0.50;;;;;;;;;;5069381;28;20923;-73
2022/03/07 01:07:15;;;;;;;0.90;0.60;;;;;;;;;;5072413;28;20815;-73
2022/03/07 01:09:42;;;;;;;0.80;0.70;;;;;;;;;;5044809;28;20434;-73
2022/03/07 01:12:09;;;;;;;0.90;0.70;;;;;;;;;;5055068;28;20407;-73
2022/03/07 01:14:37;;;;;;;0.80;0.60;;;;;;;;;;5072244;28;20416;-72
2022/03/07 01:17:04;;;;;;;0.70;0.50;;;;;;;;;;5064731;28;20417;-73
2022/03/07 01:19:32;;;;;;;1.08;0.75;;;;;;;;;;5054327;28;20993;-72
2022/03/07 01:21:59;;;;;;;0.70;0.50;;;;;;;;;;5060295;28;20455;-72
2022/03/07 01:24:26;;;;;;;0.90;0.70;;;;;;;;;;5062075;28;20880;-73
2022/03/07 01:26:53;;;;;;;0.70;0.60;;;;;;;;;;5061330;28;20453;-73
2022/03/07 01:29:20;;;;;;;0.80;0.70;;;;;;;;;;5062326;28;20495;-72
2022/03/07 01:31:46;;;;;;;0.70;0.50;;;;;;;;;;5063406;28;20415;-73
2022/03/07 01:34:13;;;;;;;0.70;0.50;;;;;;;;;;5067687;28;20419;-73
2022/03/07 01:36:42;;;;;;;0.70;0.63;;;;;;;;;;5071005;28;20431;-72
2022/03/07 01:39:12;;;;;;;0.70;0.50;;;;;;;;;;5060676;28;20428;-73
2022/03/07 01:41:50;;;;;;;0.70;0.50;;;;;;;;;;5054336;28;20441;-72
2022/03/07 01:44:19;;;;;;;0.80;0.70;;;;;;;;;;5061762;28;20517;-73
2022/03/07 01:46:49;;;;;;;0.70;0.50;;;;;;;;;;5052259;28;20425;-72
2022/03/07 01:49:19;;;;;;;0.90;0.70;;;;;;;;;;5053483;28;20413;-73
2022/03/07 01:51:51;;;;;;;0.70;0.50;;;;;;;;;;5054154;28;20424;-73
2022/03/07 01:54:22;;;;;;;1.77;0.85;;;;;;;;;;5051628;28;20427;-73
2022/03/07 01:56:53;;;;;;;0.70;0.50;;;;;;;;;;5061620;28;20427;-72
2022/03/07 01:59:26;;;;;;;0.70;0.50;;;;;;;;;;5051684;28;20425;-72
2022/03/07 02:01:58;;;;;;;0.80;0.70;;;;;;;;;;5055855;28;20937;-72
2022/03/07 02:04:28;;;;;;;0.70;0.60;;;;;;;;;;5048539;28;20502;-72
2022/03/07 02:07:03;;;;;;;1.20;0.60;;;;;;;;;;5065811;28;20454;-73
2022/03/07 02:09:35;;;;;;;0.70;0.60;;;;;;;;;;5055024;28;20427;-72
2022/03/07 02:12:11;;;;;;;0.70;0.60;;;;;;;;;;5060424;28;20983;-72
2022/03/07 02:14:44;;;;;;;0.70;0.50;;;;;;;;;;5078476;28;20907;-72
2022/03/07 02:17:13;;;;;;;0.70;0.50;;;;;;;;;;5076071;28;20473;-72
2022/03/07 02:19:43;;;;;;;0.70;0.50;;;;;;;;;;5078159;28;20498;-72
2022/03/07 02:22:16;;;;;;;0.90;0.90;;;;;;;;;;5077660;28;20423;-72
2022/03/07 02:24:48;;;;;;;0.70;0.60;;;;;;;;;;5061941;28;20423;-72
2022/03/07 02:27:18;;;;;;;0.70;0.50;;;;;;;;;;5077741;28;20451;-72
2022/03/07 02:29:48;;;;;;;0.80;0.60;;;;;;;;;;5074123;28;20937;-72
2022/03/07 02:32:22;;;;;;;1.27;1.00;;;;;;;;;;5077561;28;20426;-72
2022/03/07 02:34:50;;;;;;;0.70;0.70;;;;;;;;;;5053146;28;20424;-72
2022/03/07 02:37:23;;;;;;;0.80;0.80;;;;;;;;;;5041177;28;20494;-71
2022/03/07 02:39:56;;;;;;;0.80;0.80;;;;;;;;;;5058820;28;20448;-72
2022/03/07 02:42:42;;;;;;;1.50;0.80;;;;;;;;;;5057786;28;20428;-72
2022/03/07 02:45:12;;;;;;;0.80;0.70;;;;;;;;;;5060334;28;20921;-71
2022/03/07 02:47:45;;;;;;;0.70;0.60;;;;;;;;;;5077351;28;20923;-72
2022/03/07 02:50:18;;;;;;;1.00;0.73;;;;;;;;;;5077768;28;20800;-72
2022/03/07 02:52:49;;;;;;;0.70;0.50;;;;;;;;;;5075736;28;20852;-74
2022/03/07 02:55:16;;;;;;;0.80;0.60;;;;;;;;;;5085057;28;20447;-72
2022/03/07 02:57:46;;;;;;;1.10;0.70;;;;;;;;;;5077503;28;20488;-73
2022/03/07 03:00:13;;;;;;;0.70;0.50;;;;;;;;;;5063824;28;20413;-72
2022/03/07 03:02:40;;;;;;;0.70;0.50;;;;;;;;;;5059745;28;20412;-72
2022/03/07 03:05:07;;;;;;;0.70;0.60;;;;;;;;;;5065392;28;20505;-71
2022/03/07 03:07:34;;;;;;;0.80;0.70;;;;;;;;;;5076805;28;20939;-72
2022/03/07 03:10:02;;;;;;;1.02;0.93;;;;;;;;;;5077494;28;20799;-71
2022/03/07 03:12:29;;;;;;;0.70;0.52;;;;;;;;;;5078774;28;20780;-72
2022/03/07 03:14:56;;;;;;;0.70;0.50;;;;;;;;;;5077047;28;20492;-71
2022/03/07 03:17:23;;;;;;;0.70;0.50;;;;;;;;;;5073890;28;20411;-71
2022/03/07 03:19:51;;;;;;;0.70;0.50;;;;;;;;;;5077103;28;20414;-73
2022/03/07 03:22:19;;;;;;;0.70;0.60;;;;;;;;;;5077019;28;20450;-71
2022/03/07 03:24:46;;;;;;;0.90;0.90;;;;;;;;;;5075799;28;20412;-71
2022/03/07 03:27:14;;;;;;;0.70;0.50;;;;;;;;;;5075728;28;20403;-72
2022/03/07 03:29:41;;;;;;;0.70;0.60;;;;;;;;;;5065738;28;20514;-71
2022/03/07 03:32:07;;;;;;;0.70;0.50;;;;;;;;;;5075314;28;20419;-71
2022/03/07 03:34:34;;;;;;;0.70;0.50;;;;;;;;;;5072334;28;20411;-71
2022/03/07 03:37:05;;;;;;;0.90;0.60;;;;;;;;;;5074948;28;20403;-71
2022/03/07 03:39:31;;;;;;;4.10;0.90;;;;;;;;;;5075315;28;20494;-70
2022/03/07 03:41:58;;;;;;;0.70;0.55;;;;;;;;;;5074574;28;20464;-71
2022/03/07 03:44:26;;;;;;;0.70;0.50;;;;;;;;;;5071998;28;21126;-71
2022/03/07 03:46:53;;;;;;;0.70;0.60;;;;;;;;;;5056359;28;20502;-71
2022/03/07 03:49:19;;;;;;;0.70;0.68;;;;;;;;;;5074982;28;20535;-70
2022/03/07 03:51:46;;;;;;;0.70;0.50;;;;;;;;;;5064610;28;20771;-72
2022/03/07 03:54:13;;;;;;;0.70;0.50;;;;;;;;;;5062966;28;20427;-71
2022/03/07 03:56:40;;;;;;;0.70;0.50;;;;;;;;;;5065494;28;20773;-71
2022/03/07 03:59:07;;;;;;;0.70;0.60;;;;;;;;;;5062557;28;20459;-71
2022/03/07 04:01:35;;;;;;;1.30;0.70;;;;;;;;;;5071282;28;20477;-71
2022/03/07 04:04:04;;;;;;;0.70;0.50;;;;;;;;;;5073739;28;20492;-71
2022/03/07 04:06:32;;;;;;;0.70;0.50;;;;;;;;;;5072925;28;20455;-71
2022/03/07 04:08:58;;;;;;;0.70;0.50;;;;;;;;;;5056374;28;20482;-71
2022/03/07 04:11:25;;;;;;;0.70;0.50;;;;;;;;;;5073596;28;20969;-71
2022/03/07 04:13:52;;;;;;;0.70;0.60;;;;;;;;;;5073009;28;20764;-71
2022/03/07 04:16:19;;;;;;;1.00;0.90;;;;;;;;;;5073233;28;20439;-70
2022/03/07 04:18:47;;;;;;;0.70;0.60;;;;;;;;;;5074650;28;20446;-71
2022/03/07 04:21:14;;;;;;;1.10;1.00;;;;;;;;;;5073419;28;20438;-71
2022/03/07 04:23:41;;;;;;;0.70;0.50;;;;;;;;;;5064561;28;20775;-71
2022/03/07 04:26:09;;;;;;;1.10;1.00;;;;;;;;;;5054223;28;20437;-72
2022/03/07 04:28:36;;;;;;;0.70;0.50;;;;;;;;;;5062946;28;20412;-71
2022/03/07 04:31:02;;;;;;;0.70;0.60;;;;;;;;;;5073374;28;20561;-71
2022/03/07 04:33:30;;;;;;;0.70;0.50;;;;;;;;;;5054223;28;20425;-72
2022/03/07 04:35:59;;;;;;;0.70;0.50;;;;;;;;;;5060766;28;20439;-71
2022/03/07 04:38:26;;;;;;;0.70;0.50;;;;;;;;;;5056464;28;20926;-71
2022/03/07 04:40:53;;;;;;;0.80;0.70;;;;;;;;;;5073220;28;20513;-71
2022/03/07 04:43:20;;;;;;;0.80;0.73;;;;;;;;;;5052927;28;20433;-71
2022/03/07 04:45:47;;;;;;;0.70;0.60;;;;;;;;;;5054418;28;20516;-71
2022/03/07 04:48:14;;;;;;;0.70;0.50;;;;;;;;;;5053678;28;20455;-71
2022/03/07 04:51:05;;;;;;;0.70;0.60;;;;;;;;;;5054151;28;20596;-71
2022/03/07 04:53:52;;;;;;;2.00;1.10;;;;;;;;;;5053565;28;20432;-71
2022/03/07 04:56:19;;;;;;;0.70;0.60;;;;;;;;;;5068249;28;20396;-71
2022/03/07 04:58:46;;;;;;;0.70;0.50;;;;;;;;;;5068331;28;20413;-71
2022/03/07 05:01:14;;;;;;;0.80;0.70;;;;;;;;;;5058006;28;20415;-71
2022/03/07 05:03:41;;;;;;;0.70;0.57;;;;;;;;;;5071594;28;20404;-71
2022/03/07 05:06:09;;;;;;;0.70;0.50;;;;;;;;;;5072132;28;20419;-71
2022/03/07 05:08:39;;;;;;;0.70;0.60;;;;;;;;;;5072550;28;20486;-71
2022/03/07 05:11:06;;;;;;;0.70;0.50;;;;;;;;;;5073113;28;20959;-71
2022/03/07 05:13:33;;;;;;;0.80;0.63;;;;;;;;;;5056177;28;20448;-71
2022/03/07 05:16:00;;;;;;;1.40;0.70;;;;;;;;;;5060141;28;20757;-71
2022/03/07 05:18:27;;;;;;;0.70;0.60;;;;;;;;;;5065180;28;20415;-71
2022/03/07 05:20:53;;;;;;;1.10;1.00;;;;;;;;;;5062906;28;20952;-71
2022/03/07 05:23:26;;;;;;;0.80;0.60;;;;;;;;;;5059066;28;21066;-71
2022/03/07 05:25:52;;;;;;;1.40;1.30;;;;;;;;;;5071195;28;20421;-72
2022/03/07 05:28:19;;;;;;;0.70;0.50;;;;;;;;;;5066855;28;20928;-71
2022/03/07 05:30:46;;;;;;;0.80;0.80;;;;;;;;;;5053034;28;20413;-71
2022/03/07 05:33:12;;;;;;;0.70;0.50;;;;;;;;;;5072619;28;20419;-71
2022/03/07 05:35:39;;;;;;;0.80;0.60;;;;;;;;;;5055214;28;20468;-72
2022/03/07 05:38:08;;;;;;;0.80;0.70;;;;;;;;;;5054329;28;20766;-71
2022/03/07 05:40:40;;;;;;;1.00;0.90;;;;;;;;;;5052092;28;20770;-72
2022/03/07 05:43:14;;;;;;;0.70;0.50;;;;;;;;;;5053293;28;20794;-71
2022/03/07 05:45:44;;;;;;;1.10;0.70;;;;;;;;;;5063741;28;20459;-71
2022/03/07 05:48:11;;;;;;;0.75;0.52;;;;;;;;;;5061035;28;20418;-71
2022/03/07 05:50:38;;;;;;;1.00;0.90;;;;;;;;;;5068534;28;20415;-71
2022/03/07 05:53:04;;;;;;;0.70;0.50;;;;;;;;;;5063008;28;20895;-71
2022/03/07 05:55:35;;;;;;;0.70;0.50;;;;;;;;;;5055663;28;20962;-71
2022/03/07 05:58:03;;;;;;;1.20;0.90;;;;;;;;;;5058134;28;20521;-71
2022/03/07 06:00:32;;;;;;;1.00;0.90;;;;;;;;;;5069944;28;20411;-70
2022/03/07 06:03:00;;;;;;;0.90;0.80;;;;;;;;;;5059284;28;20393;-71
2022/03/07 06:05:28;;;;;;;0.70;0.50;;;;;;;;;;5053596;28;20990;-72
2022/03/07 06:07:54;;;;;;;0.93;0.63;;;;;;;;;;5053461;28;20406;-72
2022/03/07 06:10:21;;;;;;;0.70;0.60;;;;;;;;;;5053995;28;20808;-72
2022/03/07 06:12:50;;;;;;;0.90;0.70;;;;;;;;;;5054020;28;20425;-71
2022/03/07 06:15:19;;;;;;;0.70;0.60;;;;;;;;;;5052545;28;20504;-72
2022/03/07 06:17:55;;;;;;;0.80;0.70;;;;;;;;;;5067514;28;20404;-73
2022/03/07 06:20:23;;;;;;;0.70;0.50;;;;;;;;;;5073305;28;20399;-73
2022/03/07 06:22:53;;;;;;;0.70;0.50;;;;;;;;;;5074883;28;20396;-72
2022/03/07 06:25:20;;;;;;;0.70;0.50;;;;;;;;;;5058919;28;20421;-72
2022/03/07 06:27:53;;;;;;;0.70;0.50;;;;;;;;;;5053884;28;20436;-72
2022/03/07 06:30:21;;;;;;;0.80;0.70;;;;;;;;;;5071564;28;20412;-72
2022/03/07 06:32:54;;;;;;;1.00;0.90;;;;;;;;;;5056237;28;20985;-73
2022/03/07 06:35:21;;;;;;;0.70;0.70;;;;;;;;;;5052508;28;20459;-72
2022/03/07 06:37:52;;;;;;;0.70;0.50;;;;;;;;;;5059037;28;20414;-72
2022/03/07 06:40:20;;;;;;;0.70;0.50;;;;;;;;;;5072681;28;20403;-72
2022/03/07 06:42:50;;;;;;;0.80;0.70;;;;;;;;;;5071213;28;20845;-72
2022/03/07 06:45:17;;;;;;;0.70;0.50;;;;;;;;;;5071579;28;20434;-73
2022/03/07 06:47:49;;;;;;;0.85;0.77;;;;;;;;;;5051078;28;20440;-73
2022/03/07 06:50:16;;;;;;;0.80;0.80;;;;;;;;;;5052539;28;20428;-73
2022/03/07 06:52:44;;;;;;;0.70;0.50;;;;;;;;;;5057090;28;20418;-72
2022/03/07 06:55:11;;;;;;;0.70;0.50;;;;;;;;;;5057298;28;20469;-73
2022/03/07 06:57:38;;;;;;;0.70;0.50;;;;;;;;;;5074176;28;20412;-72
2022/03/07 07:00:06;;;;;;;0.70;0.50;;;;;;;;;;5075932;28;20404;-73
2022/03/07 07:02:33;;;;;;;0.80;0.80;;;;;;;;;;5062830;28;20421;-73
2022/03/07 07:05:02;;;;;;;1.70;1.10;;;;;;;;;;5056378;28;20409;-73
2022/03/07 07:07:29;;;;;;;1.20;0.80;;;;;;;;;;5054823;28;20415;-73
2022/03/07 07:09:57;;;;;;;0.70;0.50;;;;;;;;;;5054517;28;20440;-72
2022/03/07 07:12:24;;;;;;;0.80;0.70;;;;;;;;;;5054791;28;20401;-72
2022/03/07 07:14:51;;;;;;;0.70;0.50;;;;;;;;;;5057579;28;20424;-72
2022/03/07 07:17:18;;;;;;;0.70;0.57;;;;;;;;;;5054355;28;20977;-73
2022/03/07 07:19:53;;;;;;;2.20;0.80;;;;;;;;;;5063703;28;20415;-73
2022/03/07 07:22:21;;;;;;;0.80;0.77;;;;;;;;;;5075028;28;20399;-72
2022/03/07 07:24:51;;;;;;;0.70;0.60;;;;;;;;;;5070867;28;20400;-72
2022/03/07 07:27:18;;;;;;;0.70;0.50;;;;;;;;;;5071323;28;20425;-73
2022/03/07 07:29:46;;;;;;;1.00;0.70;;;;;;;;;;5074864;28;20475;-72
2022/03/07 07:32:13;;;;;;;1.10;1.00;;;;;;;;;;5083191;28;20478;-72
2022/03/07 07:34:42;;;;;;;0.70;0.60;;;;;;;;;;5065590;28;20421;-72
2022/03/07 07:37:09;;;;;;;0.70;0.60;;;;;;;;;;5059879;28;20416;-73
2022/03/07 07:39:46;;;;;;;0.70;0.60;;;;;;;;;;5042758;28;20506;-73
2022/03/07 07:42:15;;;;;;;1.60;1.20;;;;;;;;;;5062449;28;20445;-73
2022/03/07 07:45:12;;;;;;;0.70;0.50;;;;;;;;;;5055069;28;20742;-73
2022/03/07 07:47:44;;;;;;;0.90;0.60;;;;;;;;;;5054147;28;20426;-73
2022/03/07 07:50:13;;;;;;;0.70;0.50;;;;;;;;;;5061689;28;20432;-73
2022/03/07 07:52:40;;;;;;;0.90;0.70;;;;;;;;;;5068564;28;20407;-73
2022/03/07 07:55:10;;;;;;;1.30;0.60;;;;;;;;;;5073511;28;20859;-73
2022/03/07 07:57:39;;;;;;;1.60;0.70;;;;;;;;;;5056337;28;20421;-73
2022/03/07 08:00:07;;;;;;;0.70;0.60;;;;;;;;;;5092376;28;20955;-74
2022/03/07 08:02:50;;;;;;;0.70;0.50;;;;;;;;;;5057953;28;20421;-74
2022/03/07 08:05:18;;;;;;;0.70;0.60;;;;;;;;;;5072892;28;20529;-74
2022/03/07 08:07:46;;;;;;;0.70;0.50;;;;;;;;;;5068459;28;20471;-74
2022/03/07 08:10:15;;;;;;;1.05;1.00;;;;;;;;;;5053483;28;20293;-74
2022/03/07 08:13:08;;;;;;;;;;;;;;;;;;5057406;28;20394;-72
2022/03/07 08:15:35;;;;;;;;;;;;;;;;;;5056704;28;19920;-72
2022/03/07 08:18:03;;;;;;;0.70;0.57;;;;;;;;;;5087331;28;20505;-73
2022/03/07 08:20:30;;;;;;;0.70;0.50;;;;;;;;;;5053200;28;20508;-73
2022/03/07 08:23:00;;;;;;;0.70;0.60;;;;;;;;;;5052901;28;20503;-73
2022/03/07 08:25:26;;;;;;;;;;;;;;;;;;5055602;28;20068;-73
2022/03/07 08:27:54;;;;;;;1.00;0.90;;;;;;;;;;5055243;28;20414;-73
2022/03/07 08:30:22;;;;;;;0.80;0.70;;;;;;;;;;5069999;28;20694;-73
2022/03/07 08:32:53;;;;;;;0.80;0.75;;;;;;;;;;5075097;28;20244;-73
2022/03/07 08:35:20;;;;;;;1.10;1.00;;;;;;;;;;5075246;28;20633;-73
2022/03/07 08:37:49;;;;;;;;;;;;;;;;;;5073622;28;20501;-72
2022/03/07 08:40:17;;;;;;;0.70;0.50;;;;;;;;;;5072565;28;20404;-73
2022/03/07 08:42:44;;;;;;;;;;;;;;;;;;5073163;28;20044;-73
2022/03/07 08:45:16;;;;;;;0.70;0.70;;;;;;;;;;5062667;28;20277;-72
2022/03/07 08:47:55;;;;;;;0.80;0.70;;;;;;;;;;5058819;28;20409;-73
2022/03/07 08:50:22;;;;;;;;;;;;;;;;;;5042166;28;20498;-72
2022/03/07 08:52:56;;;;;;;2.35;1.30;;;;;;;;;;5067877;28;20210;-72
2022/03/07 08:55:23;;;;;;;0.70;0.60;;;;;;;;;;5066450;28;20424;-72
2022/03/07 08:57:50;;;;;;;0.70;0.60;;;;;;;;;;5055640;28;20459;-73
2022/03/07 09:00:19;;;;;;;0.70;0.50;;;;;;;;;;5071324;28;20437;-72
2022/03/07 09:02:49;;;;;;;0.80;0.60;;;;;;;;;;5061315;28;20454;-72
2022/03/07 09:05:16;;;;;;;0.80;0.70;;;;;;;;;;5071702;28;20399;-73
2022/03/07 09:07:47;;;;;;;0.80;0.50;;;;;;;;;;5053171;28;20416;-73
2022/03/07 09:10:14;;;;;;;0.80;0.60;;;;;;;;;;5069547;28;20413;-73
2022/03/07 09:12:44;;;;;;;0.80;0.52;;;;;;;;;;5072410;28;20554;-73
2022/03/07 09:15:14;;;;;;;0.98;0.60;;;;;;;;;;5065764;28;20420;-73
2022/03/07 09:17:42;;;;;;;1.00;0.70;;;;;;;;;;5065574;28;20412;-74
2022/03/07 09:20:13;;;;;;;0.70;0.50;;;;;;;;;;5066547;28;20415;-72
2022/03/07 09:22:40;;;;;;;0.80;0.60;;;;;;;;;;5070086;28;20761;-71
2022/03/07 09:25:07;;;;;;;0.70;0.50;;;;;;;;;;5065538;28;20777;-73
2022/03/07 09:27:35;;;;;;;;;;;;;;;;;;5071831;28;20048;-73
2022/03/07 09:30:01;;;;;;;;;;;;;;;;;;5068570;28;19928;-73
2022/03/07 09:32:28;;;;;;;;;;;;;;;;;;5070846;28;20413;-72
2022/03/07 09:34:56;;;;;;;;;;;;;;;;;;5061873;28;20511;-72
2022/03/07 09:37:25;;;;;;;;;;;;;;;;;;5066850;28;19935;-72
2022/03/07 09:39:55;;;;;;;;;;;;;;;;;;5059456;28;20336;-72
2022/03/07 09:42:21;;;;;;;;;;;;;;;;;;5050653;28;20019;-75
2022/03/07 09:44:52;;;;;;;0.70;0.60;;;;;;;;;;5066296;28;20257;-72
2022/03/07 09:47:21;;;;;;;0.70;0.60;;;;;;;;;;5066096;28;20436;-72
2022/03/07 09:49:49;;;;;;;0.70;0.60;;;;;;;;;;5072194;28;20494;-72
2022/03/07 09:52:18;;;;;;;2.00;1.07;;;;;;;;;;5071787;28;20510;-74
2022/03/07 09:54:48;;;;;;;0.70;0.60;;;;;;;;;;5069912;28;20423;-72
2022/03/07 09:57:15;;;;;;;0.70;0.60;;;;;;;;;;5072359;28;20184;-74
2022/03/07 09:59:41;;;;;;;;;;;;;;;;;;5062272;28;20282;-74
2022/03/07 10:02:14;;;;;;;;;;;;;;;;;;5070786;28;19943;-74
2022/03/07 10:04:45;;;;;;;0.80;0.60;;;;;;;;;;5053780;28;20200;-75
2022/03/07 10:07:12;;;;;;;0.70;0.60;;;;;;;;;;5034764;28;20428;-75
2022/03/07 10:09:40;;;;;;;1.05;0.90;;;;;;;;;;5054352;28;20420;-74
2022/03/07 10:12:07;;;;;;;1.45;1.35;;;;;;;;;;5071097;28;20416;-74
2022/03/07 10:14:42;;;;;;;0.75;0.60;;;;;;;;;;5071525;28;20481;-75
2022/03/07 10:17:15;;;;;;;0.80;0.60;;;;;;;;;;5071327;28;20938;-74
2022/03/07 10:19:44;;;;;;;0.70;0.60;;;;;;;;;;5087994;28;20396;-74
2022/03/07 10:22:13;;;;;;;0.80;0.60;;;;;;;;;;5051122;28;20964;-74
2022/03/07 10:25:06;;;;;;;0.80;0.70;;;;;;;;;;5060029;28;20887;-75
2022/03/07 10:27:38;;;;;;;1.88;1.20;;;;;;;;;;5069753;28;20416;-75
2022/03/07 10:30:08;;;;;;;1.00;0.55;;;;;;;;;;5070365;28;20469;-74
2022/03/07 10:32:37;;;;;;;0.70;0.60;;;;;;;;;;5075346;28;20187;-73
2022/03/07 10:35:07;;;;;;;0.70;0.60;;;;;;;;;;5092960;28;20457;-75
2022/03/07 10:37:37;;;;;;;;;;;;;;;;;;5077028;28;20305;-73
2022/03/07 10:40:05;;;;;;;;;;;;;;;;;;5059811;28;19970;-73
2022/03/07 10:42:32;;;;;;;;;;;;;;;;;;5073297;28;19920;-73
2022/03/07 10:44:59;;;;;;;;;;;;;;;;;;5057597;28;19932;-73
2022/03/07 10:47:25;;;;;;;;;;;;;;;;;;5073937;28;20318;-73
2022/03/07 10:49:53;;;;;;;;;;;;;;;;;;5059984;28;19921;-73
2022/03/07 10:52:19;;;;;;;;;;;;;;;;;;5076581;28;19985;-72
2022/03/07 10:54:49;;;;;;;;;;;;;;;;;;5060138;28;19990;-73
2022/03/07 10:57:16;;;;;;;;;;;;;;;;;;5075681;28;19924;-73
2022/03/07 10:59:45;;;;;;;;;;;;;;;;;;5064980;28;19921;-73
2022/03/07 11:02:14;;;;;;;;;;;;;;;;;;5074808;28;19973;-73
2022/03/07 11:04:42;;;;;;;;;;;;;;;;;;5076004;28;20372;-72
2022/03/07 11:07:12;;;;;;;0.70;0.70;;;;;;;;;;5076656;28;20218;-73
2022/03/07 11:09:39;;;;;;;1.37;0.90;;;;;;;;;;5074493;28;20411;-72
2022/03/07 11:12:10;;;;;;;0.70;0.50;;;;;;;;;;5074218;28;20419;-74
2022/03/07 11:14:38;;;;;;;0.90;0.80;;;;;;;;;;5073541;28;20796;-74
2022/03/07 11:17:08;;;;;;;0.77;0.50;;;;;;;;;;5072973;28;20486;-74
2022/03/07 11:19:35;;;;;;;1.10;0.73;;;;;;;;;;5071300;28;20802;-72
2022/03/07 11:22:03;;;;;;;0.80;0.60;;;;;;;;;;5074116;28;20423;-73
2022/03/07 11:24:30;;;;;;;;;;;;;;;;;;5075877;28;20044;-73
2022/03/07 11:26:57;;;;;;;;;;;;;;;;;;5075473;28;19970;-73
2022/03/07 11:29:23;;;;;;;;;;;;;;;;;;5057707;28;19924;-73
2022/03/07 11:31:50;;;;;;;;;;;;;;;;;;5069993;28;20412;-73
2022/03/07 11:34:16;;;;;;;;;;;;;;;;;;5056842;28;19952;-74
2022/03/07 11:36:48;;;;;;;;;;;;;;;;;;5060391;28;20019;-73
2022/03/07 11:39:15;;;;;;;;;;;;;;;;;;5075569;28;19920;-74
2022/03/07 11:41:44;;;;;;;0.80;0.60;;;;;;;;;;5068785;28;20959;-72
2022/03/07 11:44:13;;;;;;;0.70;0.60;;;;;;;;;;5070855;28;20185;-74
2022/03/07 11:46:40;;;;;;;;;;;;;;;;;;5057776;28;20271;-73
2022/03/07 11:49:09;;;;;;;1.73;1.63;;;;;;;;;;5054865;28;20212;-73
2022/03/07 11:51:37;;;;;;;0.70;0.60;;;;;;;;;;5055009;28;20449;-76
2022/03/07 11:54:04;;;;;;;0.70;0.60;;;;;;;;;;5054641;28;20437;-73
2022/03/07 11:56:32;;;;;;;0.70;0.60;;;;;;;;;;5059405;28;20434;-73
2022/03/07 11:58:59;;;;;;;;;;;;;;;;;;5063867;28;20310;-72
2022/03/07 12:01:30;;;;;;;0.70;0.60;;;;;;;;;;5064606;28;20223;-75
2022/03/07 12:03:57;;;;;;;;;;;;;;;;;;5075224;28;20305;-73
2022/03/07 12:06:26;;;;;;;0.70;0.60;;;;;;;;;;5073172;28;20237;-74
2022/03/07 12:08:53;;;;;;;0.80;0.70;;;;;;;;;;5071542;28;20467;-73
2022/03/07 12:11:28;;;;;;;1.10;0.70;;;;;;;;;;5054965;28;20407;-73
2022/03/07 12:14:02;;;;;;;;;;;;;;;;;;5060655;28;20402;-74
2022/03/07 12:16:31;;;;;;;1.63;0.93;;;;;;;;;;5090940;28;20620;-74
2022/03/07 12:19:07;;;;;;;0.70;0.60;;;;;;;;;;5063397;28;20467;-74
2022/03/07 12:21:35;;;;;;;0.70;0.60;;;;;;;;;;5061654;28;20463;-75
2022/03/07 12:24:05;;;;;;;0.70;0.60;;;;;;;;;;5075201;28;20463;-73
2022/03/07 12:26:31;;;;;;;0.70;0.57;;;;;;;;;;5075451;28;20420;-73
2022/03/07 12:28:58;;;;;;;0.80;0.70;;;;;;;;;;5088087;28;20794;-74
2022/03/07 12:31:25;;;;;;;0.70;0.60;;;;;;;;;;5060760;28;20426;-73
2022/03/07 12:33:54;;;;;;;0.70;0.60;;;;;;;;;;5066289;28;20947;-74
2022/03/07 12:36:26;;;;;;;0.70;0.60;;;;;;;;;;5070117;28;20456;-72
2022/03/07 12:38:54;;;;;;;;;;;;;;;;;;5070748;28;20298;-74
2022/03/07 12:41:21;;;;;;;;;;;;;;;;;;5068736;28;19920;-73
2022/03/07 12:43:49;;;;;;;;;;;;;;;;;;5074843;28;20428;-73
2022/03/07 12:46:16;;;;;;;;;;;;;;;;;;5071080;28;20373;-73
2022/03/07 12:48:45;;;;;;;;;;;;;;;;;;5064092;28;19921;-73
2022/03/07 12:51:12;;;;;;;;;;;;;;;;;;5070767;28;19974;-73
2022/03/07 12:53:48;;;;;;;0.70;0.60;;;;;;;;;;5057084;28;20209;-74
2022/03/07 12:56:16;;;;;;;0.70;0.70;;;;;;;;;;5069895;28;20532;-73
2022/03/07 12:58:42;;;;;;;;;;;;;;;;;;5066748;28;20287;-76
2022/03/07 13:01:09;;;;;;;;;;;;;;;;;;5054018;28;19935;-73
2022/03/07 13:03:38;;;;;;;;;;;;;;;;;;5057213;28;20010;-76
2022/03/07 13:06:04;;;;;;;;;;;;;;;;;;5054923;28;19921;-75
2022/03/07 13:08:32;;;;;;;0.70;0.60;;;;;;;;;;5071707;28;20318;-74
2022/03/07 13:11:00;;;;;;;0.70;0.60;;;;;;;;;;5062178;28;20436;-76
2022/03/07 13:13:27;;;;;;;0.70;0.60;;;;;;;;;;5073274;28;20492;-76
2022/03/07 13:15:54;;;;;;;0.80;0.50;;;;;;;;;;5070002;28;20896;-76
2022/03/07 13:18:44;;;;;;;0.70;0.53;;;;;;;;;;5066774;28;20180;-76
2022/03/07 13:21:10;;;;;;;0.70;0.60;;;;;;;;;;5069445;28;20561;-76
2022/03/07 13:23:38;;;;;;;;;;;;;;;;;;5054928;28;20306;-75
2022/03/07 13:26:04;;;;;;;;;;;;;;;;;;5063891;28;20415;-76
2022/03/07 13:28:32;;;;;;;;;;;;;;;;;;5068785;28;19920;-76
2022/03/07 13:30:59;;;;;;;;;;;;;;;;;;5053534;28;20408;-76
2022/03/07 13:33:26;;;;;;;;;;;;;;;;;;5053346;28;20019;-75
2022/03/07 13:35:55;;;;;;;0.70;0.60;;;;;;;;;;5060275;28;20293;-75
2022/03/07 13:38:22;;;;;;;;;;;;;;;;;;5057312;28;20294;-75
2022/03/07 13:40:49;;;;;;;0.70;0.60;;;;;;;;;;5064358;28;20213;-74
2022/03/07 13:43:23;;;;;;;0.70;0.50;;;;;;;;;;5071211;28;20936;-75
2022/03/07 13:45:53;;;;;;;;;;;;;;;;;;5070979;28;20281;-74
2022/03/07 13:48:20;;;;;;;;;;;;;;;;;;5063727;28;19978;-74
2022/03/07 13:50:47;;;;;;;0.70;0.60;;;;;;;;;;5069080;28;20206;-74
2022/03/07 13:53:16;;;;;;;0.70;0.60;;;;;;;;;;5053619;28;20438;-76
2022/03/07 13:55:43;;;;;;;;;;;;;;;;;;5053741;28;20295;-77
2022/03/07 13:58:12;;;;;;;0.80;0.70;;;;;;;;;;5055789;28;20482;-84
2022/03/07 14:00:39;;;;;;;0.70;0.60;;;;;;;;;;5066935;28;20219;-82
2022/03/07 14:03:06;;;;;;;0.80;0.80;;;;;;;;;;5070664;28;20442;-78
2022/03/07 14:05:54;;;;;;;;;;;;;;;;;;5055472;28;20275;-77
2022/03/07 14:08:24;;;;;;;;;;;;;;;;;;5073168;28;19924;-78
2022/03/07 14:10:58;;;;;;;0.70;0.50;;;;;;;;;;5058912;28;20410;-75
2022/03/07 14:13:34;;;;;;;0.70;0.57;;;;;;;;;;5052735;28;20499;-79
2022/03/07 14:16:02;;;;;;;0.70;0.50;;;;;;;;;;5051666;28;20490;-76
2022/03/07 14:18:29;;;;;;;0.97;0.80;;;;;;;;;;5069759;28;20197;-78
2022/03/07 14:20:57;;;;;;;0.70;0.70;;;;;;;;;;5071338;28;20488;-75
2022/03/07 14:23:43;;;;;;;;;;;;;;;;;;5059264;28;20294;-76
2022/03/07 14:26:10;;;;;;;;;;;;;;;;;;5072286;28;19924;-77
2022/03/07 14:28:37;;;;;;;;;;;;;;;;;;5070239;28;19920;-76
2022/03/07 14:31:06;;;;;;;0.70;0.60;;;;;;;;;;5071071;28;20224;-77
2022/03/07 14:33:42;;;;;;;0.70;0.57;;;;;;;;;;5055525;28;20497;-77
2022/03/07 14:36:09;;;;;;;0.70;0.60;;;;;;;;;;5069688;28;20494;-78
2022/03/07 14:38:35;;;;;;;;;;;;;;;;;;5073663;28;20294;-73
2022/03/07 14:41:03;;;;;;;;;;;;;;;;;;5058096;28;19925;-74
2022/03/07 14:43:51;;;;;;;;;;;;;;;;;;5053660;28;19928;-74
2022/03/07 14:46:20;;;;;;;0.70;0.50;;;;;;;;;;5051011;28;20406;-74
2022/03/07 14:48:47;;;;;;;1.00;0.90;;;;;;;;;;5052876;28;20595;-74
2022/03/07 14:51:14;;;;;;;1.10;0.70;;;;;;;;;;5050963;28;20413;-78
2022/03/07 14:53:43;;;;;;;0.70;0.50;;;;;;;;;;5057636;28;20427;-74
2022/03/07 14:56:31;;;;;;;0.70;0.50;;;;;;;;;;5071381;28;20472;-76
2022/03/07 14:59:00;;;;;;;0.70;0.50;;;;;;;;;;5067531;28;20977;-76
2022/03/07 15:01:33;;;;;;;0.70;0.50;;;;;;;;;;5072116;28;20403;-78
2022/03/07 15:04:00;;;;;;;1.40;0.80;;;;;;;;;;5037487;28;20424;-78
2022/03/07 15:06:27;;;;;;;0.80;0.70;;;;;;;;;;5053737;28;20830;-77
2022/03/07 15:08:54;;;;;;;0.80;0.70;;;;;;;;;;5052920;28;20405;-80
2022/03/07 15:11:21;;;;;;;0.80;0.70;;;;;;;;;;5073077;28;20745;-76
2022/03/07 15:13:48;;;;;;;0.90;0.70;;;;;;;;;;5057314;28;20473;-79